createdAt,value
2017-10-05T00:00:10.197Z,11.8
2017-10-05T00:01:08.873Z,11.8
2017-10-05T00:02:08.188Z,11.8
2017-10-05T00:03:07.618Z,11.8
2017-10-05T00:04:06.797Z,11.8
2017-10-05T00:05:05.857Z,11.8
2017-10-05T00:06:05.163Z,11.8
2017-10-05T00:07:04.472Z,11.8
2017-10-05T00:08:03.531Z,11.8
2017-10-05T00:09:02.359Z,11.8
2017-10-05T00:10:01.666Z,11.8
2017-10-05T00:11:00.721Z,11.8
2017-10-05T00:12:00.031Z,11.8
2017-10-05T00:12:59.344Z,11.8
2017-10-05T00:13:58.398Z,11.8
2017-10-05T00:14:57.575Z,11.8
2017-10-05T00:15:56.756Z,11.8
2017-10-05T00:16:56.057Z,11.8
2017-10-05T00:17:55.120Z,11.8
2017-10-05T00:18:54.307Z,11.8
2017-10-05T00:19:53.111Z,11.8
2017-10-05T00:20:52.799Z,11.8
2017-10-05T00:21:51.977Z,11.8
2017-10-05T00:22:51.154Z,11.8
2017-10-05T00:23:50.213Z,11.8
2017-10-05T00:24:49.516Z,11.8
2017-10-05T00:25:48.571Z,11.8
2017-10-05T00:26:47.876Z,11.8
2017-10-05T00:27:46.561Z,11.8
2017-10-05T00:28:50.343Z,11.8
2017-10-05T00:29:02.559Z,11.8
2017-10-05T00:29:45.402Z,11.9
2017-10-05T00:30:44.229Z,11.9
2017-10-05T00:31:43.551Z,11.9
2017-10-05T00:32:42.873Z,11.9
2017-10-05T00:33:41.825Z,11.9
2017-10-05T00:34:41.141Z,11.9
2017-10-05T00:35:40.466Z,11.9
2017-10-05T00:36:39.165Z,12
2017-10-05T00:37:38.487Z,12
2017-10-05T00:38:37.930Z,12
2017-10-05T00:39:36.745Z,12
2017-10-05T00:40:36.060Z,12
2017-10-05T00:41:35.502Z,12
2017-10-05T00:42:34.443Z,12.1
2017-10-05T00:43:33.763Z,12.1
2017-10-05T00:44:32.574Z,12.1
2017-10-05T00:45:31.886Z,12.1
2017-10-05T00:46:31.070Z,12.1
2017-10-05T00:47:30.387Z,12.1
2017-10-05T00:48:29.322Z,12.1
2017-10-05T00:49:28.635Z,12.1
2017-10-05T00:50:27.827Z,12.1
2017-10-05T00:51:27.021Z,12.1
2017-10-05T00:52:26.466Z,12.1
2017-10-05T00:53:25.274Z,12.1
2017-10-05T00:54:24.339Z,12.1
2017-10-05T00:55:23.663Z,12.1
2017-10-05T00:56:22.853Z,12.2
2017-10-05T00:57:22.312Z,12.1
2017-10-05T00:58:21.501Z,12.1
2017-10-05T00:59:20.443Z,12.1
2017-10-05T01:00:19.760Z,12.1
2017-10-05T01:01:18.697Z,12.1
2017-10-05T01:02:17.774Z,12.1
2017-10-05T01:03:17.094Z,12.1
2017-10-05T01:04:16.167Z,12.1
2017-10-05T01:05:15.742Z,12.1
2017-10-05T01:06:14.816Z,12.2
2017-10-05T01:07:14.134Z,12.2
2017-10-05T01:08:13.456Z,12.1
2017-10-05T01:09:12.069Z,12.2
2017-10-05T01:11:10.641Z,12.2
2017-10-05T01:12:09.464Z,12.2
2017-10-05T01:13:09.043Z,12.2
2017-10-05T01:14:07.986Z,12.2
2017-10-05T01:15:07.181Z,12.2
2017-10-05T01:16:06.501Z,12.2
2017-10-05T01:17:05.843Z,12.2
2017-10-05T01:18:05.047Z,12.3
2017-10-05T01:19:03.865Z,12.2
2017-10-05T01:20:03.178Z,12.2
2017-10-05T01:21:02.510Z,12.2
2017-10-05T01:22:01.954Z,12.2
2017-10-05T01:23:00.894Z,12.3
2017-10-05T01:23:59.716Z,12.3
2017-10-05T01:24:59.030Z,12.3
2017-10-05T01:25:58.346Z,12.3
2017-10-05T01:26:57.293Z,12.3
2017-10-05T01:27:56.488Z,12.3
2017-10-05T01:28:55.935Z,12.2
2017-10-05T01:29:55.010Z,12.2
2017-10-05T01:30:54.336Z,12.3
2017-10-05T01:31:53.402Z,12.3
2017-10-05T01:32:52.844Z,12.3
2017-10-05T01:33:52.046Z,12.3
2017-10-05T01:34:50.726Z,12.2
2017-10-05T01:35:21.368Z,12.2
2017-10-05T01:36:49.371Z,12.3
2017-10-05T01:37:48.562Z,12.3
2017-10-05T01:38:47.888Z,12.3
2017-10-05T01:39:46.573Z,12.2
2017-10-05T01:40:45.901Z,12.2
2017-10-05T01:41:45.219Z,12.2
2017-10-05T01:42:44.541Z,12.2
2017-10-05T01:43:43.478Z,12.2
2017-10-05T01:44:42.673Z,12.2
2017-10-05T01:45:41.997Z,12.2
2017-10-05T01:46:12.130Z,12.2
2017-10-05T01:47:40.001Z,12.2
2017-10-05T01:48:39.700Z,12.2
2017-10-05T01:49:38.520Z,12.2
2017-10-05T01:50:37.843Z,12.2
2017-10-05T01:51:37.280Z,12.2
2017-10-05T01:52:36.351Z,12.2
2017-10-05T01:53:35.551Z,12.2
2017-10-05T01:54:34.610Z,12.2
2017-10-05T01:55:33.550Z,12.3
2017-10-05T01:56:32.616Z,12.3
2017-10-05T01:57:32.183Z,12.3
2017-10-05T01:59:30.407Z,12.3
2017-10-05T02:00:29.856Z,12.3
2017-10-05T02:01:28.546Z,12.3
2017-10-05T02:02:27.985Z,12.3
2017-10-05T02:03:27.429Z,12.3
2017-10-05T02:04:26.117Z,12.3
2017-10-05T02:05:25.442Z,12.3
2017-10-05T02:06:24.631Z,12.3
2017-10-05T02:07:23.816Z,12.3
2017-10-05T02:08:23.138Z,12.3
2017-10-05T02:09:22.212Z,12.3
2017-10-05T02:11:20.659Z,12.3
2017-10-05T02:12:19.852Z,12.3
2017-10-05T02:13:19.045Z,12.3
2017-10-05T02:14:18.109Z,12.3
2017-10-05T02:15:17.175Z,12.3
2017-10-05T02:16:16.368Z,12.3
2017-10-05T02:17:15.638Z,12.3
2017-10-05T02:18:14.952Z,12.3
2017-10-05T02:19:13.771Z,12.3
2017-10-05T02:20:13.461Z,12.3
2017-10-05T02:21:12.782Z,12.3
2017-10-05T02:22:11.475Z,12.3
2017-10-05T02:23:11.043Z,12.3
2017-10-05T02:24:09.723Z,12.4
2017-10-05T02:25:09.043Z,12.4
2017-10-05T02:26:08.109Z,12.3
2017-10-05T02:27:07.302Z,12.3
2017-10-05T02:28:06.739Z,12.3
2017-10-05T02:29:05.929Z,12.3
2017-10-05T02:30:04.997Z,12.3
2017-10-05T02:31:04.206Z,12.3
2017-10-05T02:32:03.654Z,12.3
2017-10-05T02:33:02.341Z,12.3
2017-10-05T02:34:02.051Z,12.3
2017-10-05T02:35:00.866Z,12.3
2017-10-05T02:36:00.323Z,12.3
2017-10-05T02:36:59.386Z,12.3
2017-10-05T02:37:58.709Z,12.3
2017-10-05T02:38:57.910Z,12.3
2017-10-05T02:39:56.993Z,12.3
2017-10-05T02:40:56.191Z,12.4
2017-10-05T02:41:55.508Z,12.3
2017-10-05T02:42:54.449Z,12.3
2017-10-05T02:43:53.630Z,12.3
2017-10-05T02:44:52.826Z,12.3
2017-10-05T02:45:23.472Z,12.3
2017-10-05T02:45:53.857Z,12.4
2017-10-05T02:46:51.300Z,12.4
2017-10-05T02:47:50.244Z,12.4
2017-10-05T02:48:49.182Z,12.4
2017-10-05T02:49:48.620Z,12.4
2017-10-05T02:50:47.959Z,12.4
2017-10-05T02:51:47.827Z,12.4
2017-10-05T02:52:46.162Z,12.3
2017-10-05T02:53:45.728Z,12.3
2017-10-05T02:54:44.798Z,12.3
2017-10-05T02:55:43.872Z,12.3
2017-10-05T02:56:42.951Z,12.3
2017-10-05T02:57:42.275Z,12.3
2017-10-05T02:58:41.346Z,12.3
2017-10-05T02:59:40.406Z,12.3
2017-10-05T03:00:39.975Z,12.3
2017-10-05T03:01:39.302Z,12.3
2017-10-05T03:02:37.875Z,12.3
2017-10-05T03:03:37.308Z,12.3
2017-10-05T03:04:36.119Z,12.3
2017-10-05T03:05:35.348Z,12.3
2017-10-05T03:06:34.920Z,12.2
2017-10-05T03:07:34.107Z,12.2
2017-10-05T03:08:33.426Z,12.2
2017-10-05T03:09:32.514Z,12.2
2017-10-05T03:10:31.585Z,12.1
2017-10-05T03:11:30.893Z,12.1
2017-10-05T03:12:29.705Z,12.1
2017-10-05T03:13:29.026Z,12
2017-10-05T03:14:28.340Z,12
2017-10-05T03:15:27.152Z,11.9
2017-10-05T03:16:26.595Z,11.9
2017-10-05T03:17:25.917Z,11.9
2017-10-05T03:18:24.977Z,11.9
2017-10-05T03:19:24.172Z,11.8
2017-10-05T03:20:23.237Z,11.8
2017-10-05T03:22:21.564Z,11.7
2017-10-05T03:23:21.013Z,11.7
2017-10-05T03:24:19.956Z,11.7
2017-10-05T03:25:19.143Z,11.7
2017-10-05T03:26:18.456Z,11.7
2017-10-05T03:27:17.518Z,11.7
2017-10-05T03:28:16.973Z,11.7
2017-10-05T03:29:15.784Z,11.6
2017-10-05T03:30:15.351Z,11.6
2017-10-05T03:31:14.297Z,11.6
2017-10-05T03:32:13.241Z,11.6
2017-10-05T03:33:12.558Z,11.6
2017-10-05T03:34:11.745Z,11.6
2017-10-05T03:35:11.062Z,11.6
2017-10-05T03:36:10.121Z,11.6
2017-10-05T03:37:09.702Z,11.6
2017-10-05T03:38:08.518Z,11.6
2017-10-05T03:39:07.966Z,11.7
2017-10-05T03:40:06.779Z,11.7
2017-10-05T03:41:05.977Z,11.6
2017-10-05T03:42:05.556Z,11.6
2017-10-05T03:43:04.500Z,11.6
2017-10-05T03:44:03.685Z,11.6
2017-10-05T03:45:02.883Z,11.5
2017-10-05T03:46:01.964Z,11.5
2017-10-05T03:47:01.409Z,11.5
2017-10-05T03:48:00.363Z,11.5
2017-10-05T03:48:59.552Z,11.5
2017-10-05T03:49:58.873Z,11.4
2017-10-05T03:50:57.933Z,11.5
2017-10-05T03:51:57.377Z,11.4
2017-10-05T03:52:56.194Z,11.4
2017-10-05T03:53:55.803Z,11.4
2017-10-05T03:54:54.735Z,11.4
2017-10-05T03:55:53.547Z,11.4
2017-10-05T03:56:52.990Z,11.4
2017-10-05T03:57:52.064Z,11.3
2017-10-05T03:58:51.388Z,11.3
2017-10-05T03:59:50.196Z,11.3
2017-10-05T04:00:49.648Z,11.3
2017-10-05T04:01:49.096Z,11.2
2017-10-05T04:02:48.029Z,11.2
2017-10-05T04:03:46.961Z,11.2
2017-10-05T04:04:46.533Z,11.1
2017-10-05T04:05:45.384Z,11.2
2017-10-05T04:06:44.673Z,11.2
2017-10-05T04:07:43.858Z,11.2
2017-10-05T04:08:43.185Z,11.2
2017-10-05T04:09:42.000Z,11.2
2017-10-05T04:10:41.319Z,11.2
2017-10-05T04:11:40.518Z,11.1
2017-10-05T04:12:39.833Z,11.1
2017-10-05T04:13:38.777Z,11.1
2017-10-05T04:14:37.968Z,11.1
2017-10-05T04:15:37.364Z,11.1
2017-10-05T04:16:36.051Z,11.1
2017-10-05T04:17:35.617Z,11.1
2017-10-05T04:18:34.558Z,11.1
2017-10-05T04:19:33.873Z,11
2017-10-05T04:20:33.187Z,11
2017-10-05T04:21:32.364Z,11
2017-10-05T04:22:31.175Z,11
2017-10-05T04:24:29.363Z,11
2017-10-05T04:25:28.561Z,10.9
2017-10-05T04:26:28.009Z,10.9
2017-10-05T04:27:26.947Z,10.9
2017-10-05T04:28:26.137Z,10.8
2017-10-05T04:29:25.202Z,10.8
2017-10-05T04:30:24.513Z,10.8
2017-10-05T04:31:23.839Z,10.8
2017-10-05T04:32:23.158Z,10.7
2017-10-05T04:33:21.974Z,10.7
2017-10-05T04:34:21.539Z,10.7
2017-10-05T04:35:20.478Z,10.7
2017-10-05T04:36:19.671Z,10.6
2017-10-05T04:37:18.987Z,10.6
2017-10-05T04:38:17.807Z,10.6
2017-10-05T04:39:17.124Z,10.5
2017-10-05T04:40:16.064Z,10.5
2017-10-05T04:41:15.377Z,10.5
2017-10-05T04:42:14.696Z,10.5
2017-10-05T04:43:13.506Z,10.4
2017-10-05T04:44:12.823Z,10.4
2017-10-05T04:45:12.265Z,10.4
2017-10-05T04:46:11.200Z,10.4
2017-10-05T04:48:09.398Z,10.4
2017-10-05T04:49:08.470Z,10.3
2017-10-05T04:50:07.662Z,10.3
2017-10-05T04:52:06.110Z,10.3
2017-10-05T04:53:05.429Z,10.3
2017-10-05T04:54:04.364Z,10.3
2017-10-05T04:55:03.809Z,10.3
2017-10-05T04:56:02.622Z,10.3
2017-10-05T04:57:01.949Z,10.2
2017-10-05T04:58:00.768Z,10.2
2017-10-05T04:58:59.963Z,10.2
2017-10-05T04:59:59.290Z,10.2
2017-10-05T05:00:58.601Z,10.2
2017-10-05T05:01:57.546Z,10.2
2017-10-05T05:02:56.736Z,10.2
2017-10-05T05:03:27.367Z,10.2
2017-10-05T05:03:58.001Z,10.2
2017-10-05T05:04:28.254Z,10.2
2017-10-05T05:05:54.251Z,10.2
2017-10-05T05:06:53.692Z,10.2
2017-10-05T05:07:52.640Z,10.2
2017-10-05T05:08:51.957Z,10.2
2017-10-05T05:09:50.770Z,10.2
2017-10-05T05:10:50.209Z,10.2
2017-10-05T05:11:49.281Z,10.2
2017-10-05T05:12:48.467Z,10.2
2017-10-05T05:13:47.288Z,10.2
2017-10-05T05:14:46.475Z,10.2
2017-10-05T05:15:45.798Z,10.2
2017-10-05T05:16:44.735Z,10.2
2017-10-05T05:17:44.053Z,10.2
2017-10-05T05:18:43.369Z,10.1
2017-10-05T05:19:42.059Z,10.2
2017-10-05T05:20:41.500Z,10.1
2017-10-05T05:21:40.566Z,10.1
2017-10-05T05:22:39.760Z,10.1
2017-10-05T05:23:38.824Z,10.1
2017-10-05T05:24:38.139Z,10.2
2017-10-05T05:25:37.328Z,10.1
2017-10-05T05:26:36.276Z,10.2
2017-10-05T05:27:35.593Z,10.1
2017-10-05T05:28:34.787Z,10.1
2017-10-05T05:29:33.978Z,10.1
2017-10-05T05:30:32.930Z,10.1
2017-10-05T05:31:32.250Z,10.1
2017-10-05T05:32:31.180Z,10.1
2017-10-05T05:33:30.239Z,10.1
2017-10-05T05:34:29.681Z,10.1
2017-10-05T05:35:28.756Z,10.1
2017-10-05T05:36:27.703Z,10.1
2017-10-05T05:37:27.020Z,10.1
2017-10-05T05:38:26.215Z,10.1
2017-10-05T05:39:25.400Z,10.1
2017-10-05T05:40:24.470Z,10.1
2017-10-05T05:41:23.537Z,10.1
2017-10-05T05:42:23.010Z,10.1
2017-10-05T05:43:22.069Z,10.1
2017-10-05T05:46:19.160Z,10.1
2017-10-05T05:47:18.224Z,10.1
2017-10-05T05:48:18.049Z,10.1
2017-10-05T05:49:16.987Z,10.1
2017-10-05T05:50:16.100Z,10.1
2017-10-05T05:52:14.305Z,10.1
2017-10-05T05:53:13.397Z,10.1
2017-10-05T05:54:12.594Z,10.1
2017-10-05T05:55:11.539Z,10.1
2017-10-05T05:55:42.164Z,10.1
2017-10-05T05:57:09.656Z,10.1
2017-10-05T05:58:08.974Z,10.1
2017-10-05T06:00:07.294Z,10.1
2017-10-05T06:02:05.994Z,10.1
2017-10-05T06:03:04.931Z,10.1
2017-10-05T06:05:03.176Z,10.1
2017-10-05T06:06:02.364Z,10.1
2017-10-05T06:07:01.176Z,10.1
2017-10-05T06:08:00.632Z,10.1
2017-10-05T06:08:59.831Z,10.1
2017-10-05T06:09:59.148Z,10.1
2017-10-05T06:10:57.959Z,10.1
2017-10-05T06:11:57.154Z,10.1
2017-10-05T06:12:56.097Z,10.1
2017-10-05T06:13:55.421Z,10.1
2017-10-05T06:14:54.741Z,10.1
2017-10-05T06:15:53.828Z,10.1
2017-10-05T06:18:51.177Z,10.1
2017-10-05T06:19:50.494Z,10.1
2017-10-05T06:20:49.319Z,10.1
2017-10-05T06:21:48.512Z,10.1
2017-10-05T06:22:47.705Z,10.1
2017-10-05T06:23:46.780Z,10.1
2017-10-05T06:24:45.849Z,10.1
2017-10-05T06:27:43.567Z,10.2
2017-10-05T06:28:42.628Z,10.2
2017-10-05T06:29:42.071Z,10.2
2017-10-05T06:30:40.637Z,10.2
2017-10-05T06:31:40.354Z,10.2
2017-10-05T06:32:39.041Z,10.2
2017-10-05T06:33:38.634Z,10.2
2017-10-05T06:34:37.585Z,10.2
2017-10-05T06:38:34.252Z,10.2
2017-10-05T06:40:32.204Z,10.2
2017-10-05T06:41:31.400Z,10.2
2017-10-05T06:42:30.717Z,10.2
2017-10-05T06:47:26.320Z,10.2
2017-10-05T06:48:25.762Z,10.2
2017-10-05T06:49:24.708Z,10.2
2017-10-05T06:50:23.912Z,10.2
2017-10-05T06:51:23.105Z,10.2
2017-10-05T06:52:22.309Z,10.2
2017-10-05T06:53:21.623Z,10.2
2017-10-05T06:54:20.439Z,10.2
2017-10-05T06:55:19.761Z,10.2
2017-10-05T06:56:18.829Z,10.3
2017-10-05T06:57:17.762Z,10.3
2017-10-05T06:59:16.346Z,10.3
2017-10-05T07:00:15.291Z,10.3
2017-10-05T07:02:13.622Z,10.3
2017-10-05T07:03:13.079Z,10.3
2017-10-05T07:04:11.892Z,10.3
2017-10-05T07:05:11.092Z,10.3
2017-10-05T07:09:07.935Z,10.3
2017-10-05T07:10:06.757Z,10.3
2017-10-05T07:11:05.833Z,10.3
2017-10-05T07:12:05.021Z,10.3
2017-10-05T07:13:04.230Z,10.3
2017-10-05T07:14:03.798Z,10.3
2017-10-05T07:15:02.994Z,10.3
2017-10-05T07:16:01.933Z,10.3
2017-10-05T07:17:00.743Z,10.3
2017-10-05T07:17:59.817Z,10.3
2017-10-05T07:18:59.134Z,10.3
2017-10-05T07:19:58.320Z,10.4
2017-10-05T07:20:57.514Z,10.4
2017-10-05T07:21:56.823Z,10.4
2017-10-05T07:22:27.448Z,10.4
2017-10-05T07:22:58.072Z,10.4
2017-10-05T07:24:54.130Z,10.4
2017-10-05T07:25:53.193Z,10.4
2017-10-05T07:27:51.520Z,10.4
2017-10-05T07:28:50.720Z,10.4
2017-10-05T07:31:48.048Z,10.4
2017-10-05T07:33:46.752Z,10.5
2017-10-05T07:34:45.695Z,10.5
2017-10-05T07:35:44.758Z,10.5
2017-10-05T07:36:43.826Z,10.5
2017-10-05T07:38:42.277Z,10.5
2017-10-05T07:39:41.467Z,10.5
2017-10-05T07:40:40.405Z,10.5
2017-10-05T07:41:39.611Z,10.5
2017-10-05T07:42:38.547Z,10.5
2017-10-05T07:43:37.734Z,10.5
2017-10-05T07:44:36.924Z,10.5
2017-10-05T07:45:36.233Z,10.5
2017-10-05T07:46:35.551Z,10.6
2017-10-05T07:47:34.238Z,10.6
2017-10-05T07:48:33.430Z,10.6
2017-10-05T07:49:32.878Z,10.6
2017-10-05T07:50:32.196Z,10.6
2017-10-05T07:51:31.132Z,10.6
2017-10-05T07:52:30.709Z,10.6
2017-10-05T07:53:29.526Z,10.7
2017-10-05T07:54:28.718Z,10.7
2017-10-05T07:55:27.539Z,10.7
2017-10-05T07:56:27.111Z,10.7
2017-10-05T07:57:25.917Z,10.7
2017-10-05T07:59:24.367Z,10.7
2017-10-05T08:00:23.818Z,10.7
2017-10-05T08:01:22.886Z,10.7
2017-10-05T08:02:21.821Z,10.7
2017-10-05T08:03:20.889Z,10.7
2017-10-05T08:04:20.211Z,10.7
2017-10-05T08:05:19.540Z,10.7
2017-10-05T08:06:18.732Z,10.7
2017-10-05T08:07:17.547Z,10.8
2017-10-05T08:08:17.111Z,10.8
2017-10-05T08:09:15.926Z,10.8
2017-10-05T08:10:15.109Z,10.8
2017-10-05T08:11:14.186Z,10.8
2017-10-05T08:12:13.496Z,10.8
2017-10-05T08:13:12.303Z,10.8
2017-10-05T08:14:11.997Z,10.8
2017-10-05T08:15:10.691Z,10.8
2017-10-05T08:16:10.141Z,10.8
2017-10-05T08:17:09.461Z,10.8
2017-10-05T08:18:08.275Z,10.8
2017-10-05T08:19:07.595Z,10.8
2017-10-05T08:21:05.814Z,10.9
2017-10-05T08:23:04.387Z,10.9
2017-10-05T08:24:03.445Z,10.9
2017-10-05T08:25:02.387Z,10.9
2017-10-05T08:26:01.324Z,10.9
2017-10-05T08:27:00.893Z,10.9
2017-10-05T08:28:00.210Z,10.9
2017-10-05T08:28:58.775Z,10.9
2017-10-05T08:29:58.342Z,10.9
2017-10-05T08:30:57.410Z,10.9
2017-10-05T08:31:56.352Z,10.9
2017-10-05T08:32:55.793Z,10.9
2017-10-05T08:33:54.857Z,10.9
2017-10-05T08:34:54.071Z,10.9
2017-10-05T08:35:53.147Z,10.9
2017-10-05T08:36:52.333Z,10.9
2017-10-05T08:37:51.532Z,10.9
2017-10-05T08:38:50.850Z,10.9
2017-10-05T08:40:56.420Z,10.9
2017-10-05T08:40:58.134Z,10.9
2017-10-05T08:41:48.150Z,10.9
2017-10-05T08:42:47.224Z,10.9
2017-10-05T08:43:46.306Z,10.9
2017-10-05T08:44:45.506Z,10.9
2017-10-05T08:45:44.966Z,10.9
2017-10-05T08:46:43.792Z,10.9
2017-10-05T08:47:42.990Z,10.9
2017-10-05T08:48:42.312Z,10.9
2017-10-05T08:49:41.639Z,10.9
2017-10-05T08:50:40.716Z,10.9
2017-10-05T08:51:39.536Z,10.9
2017-10-05T08:52:38.737Z,10.9
2017-10-05T08:53:09.336Z,10.9
2017-10-05T08:54:37.482Z,10.9
2017-10-05T08:55:36.179Z,10.9
2017-10-05T08:56:35.508Z,10.9
2017-10-05T08:57:34.956Z,10.9
2017-10-05T08:58:33.525Z,10.9
2017-10-05T08:59:32.983Z,11
2017-10-05T09:00:32.185Z,11
2017-10-05T09:01:31.262Z,11
2017-10-05T09:02:30.589Z,11
2017-10-05T09:03:29.789Z,11
2017-10-05T09:04:28.488Z,11
2017-10-05T09:05:28.071Z,11
2017-10-05T09:06:27.269Z,11
2017-10-05T09:07:26.223Z,11
2017-10-05T09:08:25.436Z,11
2017-10-05T09:09:24.777Z,11.1
2017-10-05T09:10:23.643Z,11.1
2017-10-05T09:11:23.096Z,11.1
2017-10-05T09:12:22.176Z,11.1
2017-10-05T09:13:21.495Z,11.1
2017-10-05T09:14:20.587Z,11.1
2017-10-05T09:15:19.407Z,11.1
2017-10-05T09:16:18.733Z,11.1
2017-10-05T09:17:18.186Z,11.1
2017-10-05T09:18:17.137Z,11.1
2017-10-05T09:19:16.339Z,11.1
2017-10-05T09:20:15.547Z,11.1
2017-10-05T09:21:14.625Z,11.1
2017-10-05T09:22:13.982Z,11.1
2017-10-05T09:23:12.694Z,11.1
2017-10-05T09:25:10.908Z,11.1
2017-10-05T09:26:10.363Z,11.1
2017-10-05T09:27:09.693Z,11.1
2017-10-05T09:28:08.776Z,11.1
2017-10-05T09:29:07.862Z,11.1
2017-10-05T09:31:06.328Z,11.1
2017-10-05T09:32:05.658Z,11.1
2017-10-05T09:33:04.483Z,11.1
2017-10-05T09:34:03.567Z,11.1
2017-10-05T09:35:03.024Z,11.1
2017-10-05T09:35:33.315Z,11.1
2017-10-05T09:36:04.089Z,11.1
2017-10-05T09:37:01.030Z,11.1
2017-10-05T09:38:00.367Z,11.1
2017-10-05T09:38:59.696Z,11.1
2017-10-05T09:39:58.778Z,11.2
2017-10-05T09:42:56.372Z,11.2
2017-10-05T09:43:55.323Z,11.2
2017-10-05T09:44:54.651Z,11.2
2017-10-05T09:45:53.598Z,11.2
2017-10-05T09:46:52.925Z,11.3
2017-10-05T09:47:51.745Z,11.3
2017-10-05T09:48:51.066Z,11.3
2017-10-05T09:49:50.143Z,11.3
2017-10-05T09:50:49.476Z,11.3
2017-10-05T09:51:48.799Z,11.3
2017-10-05T09:52:47.786Z,11.4
2017-10-05T09:53:46.996Z,11.4
2017-10-05T09:54:46.197Z,11.4
2017-10-05T09:56:44.529Z,11.5
2017-10-05T09:57:43.606Z,11.5
2017-10-05T09:58:42.681Z,11.5
2017-10-05T09:59:42.260Z,11.6
2017-10-05T10:00:40.830Z,11.6
2017-10-05T10:01:40.296Z,11.6
2017-10-05T10:02:39.775Z,11.6
2017-10-05T10:03:38.603Z,11.6
2017-10-05T10:04:37.937Z,11.6
2017-10-05T10:05:37.267Z,11.6
2017-10-05T10:06:36.470Z,11.6
2017-10-05T10:07:35.041Z,11.6
2017-10-05T10:08:34.370Z,11.6
2017-10-05T10:09:33.573Z,11.6
2017-10-05T10:10:33.029Z,11.7
2017-10-05T10:12:31.492Z,11.7
2017-10-05T10:13:30.445Z,11.7
2017-10-05T10:14:29.780Z,11.7
2017-10-05T10:15:28.979Z,11.7
2017-10-05T10:16:27.924Z,11.7
2017-10-05T10:18:26.139Z,11.7
2017-10-05T10:19:25.589Z,11.7
2017-10-05T10:20:24.913Z,11.7
2017-10-05T10:21:23.987Z,11.7
2017-10-05T10:22:23.057Z,11.7
2017-10-05T10:23:21.872Z,11.7
2017-10-05T10:24:20.947Z,11.7
2017-10-05T10:25:20.650Z,11.7
2017-10-05T10:26:19.846Z,11.7
2017-10-05T10:27:18.794Z,11.7
2017-10-05T10:28:17.872Z,11.8
2017-10-05T10:29:17.078Z,11.9
2017-10-05T10:30:16.538Z,11.9
2017-10-05T10:31:15.245Z,12
2017-10-05T10:32:14.445Z,12
2017-10-05T10:33:14.020Z,12.1
2017-10-05T10:34:12.972Z,12.1
2017-10-05T10:35:12.443Z,12.1
2017-10-05T10:36:11.135Z,12.1
2017-10-05T10:37:10.467Z,12.1
2017-10-05T10:38:10.044Z,12.1
2017-10-05T10:39:08.746Z,12.2
2017-10-05T10:40:07.958Z,12.2
2017-10-05T10:41:07.285Z,12.2
2017-10-05T10:41:37.674Z,12.2
2017-10-05T10:45:04.087Z,12.3
2017-10-05T10:46:03.295Z,12.3
2017-10-05T10:47:02.496Z,12.4
2017-10-05T10:48:01.338Z,12.3
2017-10-05T10:49:00.534Z,12.3
2017-10-05T10:49:59.856Z,12.4
2017-10-05T10:50:59.178Z,12.4
2017-10-05T10:51:58.118Z,12.4
2017-10-05T10:52:57.200Z,12.4
2017-10-05T10:53:56.526Z,12.4
2017-10-05T10:54:55.729Z,12.4
2017-10-05T10:55:55.180Z,12.5
2017-10-05T10:56:54.007Z,12.4
2017-10-05T10:57:53.086Z,12.4
2017-10-05T10:58:52.289Z,12.5
2017-10-05T10:59:51.736Z,12.5
2017-10-05T11:00:50.821Z,12.4
2017-10-05T11:01:50.282Z,12.4
2017-10-05T11:02:48.981Z,12.5
2017-10-05T11:04:47.311Z,12.5
2017-10-05T11:05:46.638Z,12.6
2017-10-05T11:06:45.715Z,12.5
2017-10-05T11:07:45.042Z,12.5
2017-10-05T11:08:44.494Z,12.6
2017-10-05T11:09:43.444Z,12.5
2017-10-05T11:10:14.080Z,12.5
2017-10-05T11:10:44.721Z,12.5
2017-10-05T11:11:14.727Z,12.5
2017-10-05T11:11:45.247Z,12.6
2017-10-05T11:12:15.511Z,12.6
2017-10-05T11:12:46.273Z,12.7
2017-10-05T11:13:40.566Z,12.7
2017-10-05T11:14:11.261Z,12.7
2017-10-05T11:15:38.517Z,12.7
2017-10-05T11:16:37.591Z,12.7
2017-10-05T11:17:36.925Z,12.7
2017-10-05T11:18:36.249Z,12.7
2017-10-05T11:19:35.452Z,12.7
2017-10-05T11:20:34.405Z,12.7
2017-10-05T11:21:33.605Z,12.7
2017-10-05T11:22:33.078Z,12.8
2017-10-05T11:24:31.157Z,12.8
2017-10-05T11:25:01.542Z,12.8
2017-10-05T11:26:29.676Z,12.9
2017-10-05T11:27:29.009Z,12.9
2017-10-05T11:28:28.340Z,12.9
2017-10-05T11:29:27.169Z,12.9
2017-10-05T11:30:26.656Z,12.9
2017-10-05T11:31:25.500Z,12.9
2017-10-05T11:32:24.570Z,12.9
2017-10-05T11:33:24.024Z,12.9
2017-10-05T11:34:23.228Z,12.9
2017-10-05T11:35:22.550Z,12.9
2017-10-05T11:36:21.626Z,12.9
2017-10-05T11:37:20.463Z,12.9
2017-10-05T11:38:19.543Z,13
2017-10-05T11:39:18.869Z,13.1
2017-10-05T11:40:18.322Z,13.1
2017-10-05T11:41:17.524Z,13.2
2017-10-05T11:42:16.733Z,13.2
2017-10-05T11:43:15.931Z,13.2
2017-10-05T11:44:15.134Z,13.2
2017-10-05T11:45:14.337Z,13.3
2017-10-05T11:47:12.792Z,13.3
2017-10-05T11:48:11.623Z,13.3
2017-10-05T11:49:10.837Z,13.3
2017-10-05T11:50:10.160Z,13.4
2017-10-05T11:51:09.488Z,13.4
2017-10-05T11:52:08.847Z,13.5
2017-10-05T11:54:06.929Z,13.6
2017-10-05T11:55:06.267Z,13.7
2017-10-05T11:56:05.217Z,13.7
2017-10-05T11:57:04.689Z,13.7
2017-10-05T11:58:03.515Z,13.7
2017-10-05T11:59:03.221Z,13.7
2017-10-05T12:00:02.425Z,13.8
2017-10-05T12:01:01.129Z,13.8
2017-10-05T12:02:00.723Z,13.8
2017-10-05T12:02:59.929Z,13.8
2017-10-05T12:03:59.129Z,14
2017-10-05T12:04:58.454Z,14
2017-10-05T12:05:57.532Z,14
2017-10-05T12:06:56.729Z,14
2017-10-05T12:07:55.681Z,14
2017-10-05T12:08:55.265Z,14.1
2017-10-05T12:09:54.334Z,14.1
2017-10-05T12:10:53.649Z,14.1
2017-10-05T12:11:52.469Z,14.1
2017-10-05T12:12:51.545Z,14.2
2017-10-05T12:13:51.003Z,14.2
2017-10-05T12:14:50.326Z,14.2
2017-10-05T12:15:49.401Z,14.2
2017-10-05T12:16:48.735Z,14.3
2017-10-05T12:17:47.934Z,14.3
2017-10-05T12:18:47.139Z,14.4
2017-10-05T12:19:46.469Z,14.5
2017-10-05T12:20:45.419Z,14.5
2017-10-05T12:21:45.013Z,14.6
2017-10-05T12:22:43.837Z,14.6
2017-10-05T12:23:43.169Z,14.6
2017-10-05T12:24:42.623Z,14.6
2017-10-05T12:25:41.577Z,14.7
2017-10-05T12:26:41.020Z,14.7
2017-10-05T12:27:39.713Z,14.8
2017-10-05T12:28:39.300Z,14.9
2017-10-05T12:29:38.368Z,14.9
2017-10-05T12:30:37.570Z,14.9
2017-10-05T12:31:36.895Z,14.9
2017-10-05T12:32:35.971Z,14.9
2017-10-05T12:33:35.307Z,15
2017-10-05T12:35:34.146Z,15
2017-10-05T12:36:33.098Z,15
2017-10-05T12:37:32.048Z,15.1
2017-10-05T12:38:31.500Z,15.1
2017-10-05T12:39:30.953Z,15.1
2017-10-05T12:40:30.031Z,15.1
2017-10-05T12:41:29.367Z,15.1
2017-10-05T12:42:28.061Z,15.1
2017-10-05T12:43:27.642Z,15.2
2017-10-05T12:44:27.093Z,15.2
2017-10-05T12:45:26.174Z,15.2
2017-10-05T12:46:25.502Z,15.2
2017-10-05T12:47:24.710Z,15.2
2017-10-05T12:48:23.537Z,15.2
2017-10-05T12:49:22.983Z,15.3
2017-10-05T12:49:53.626Z,15.3
2017-10-05T12:51:21.388Z,15.3
2017-10-05T12:52:20.594Z,15.3
2017-10-05T12:53:19.669Z,15.4
2017-10-05T12:54:19.126Z,15.4
2017-10-05T12:55:18.585Z,15.4
2017-10-05T12:56:17.413Z,15.5
2017-10-05T12:57:16.868Z,15.5
2017-10-05T12:58:16.070Z,15.5
2017-10-05T12:59:15.397Z,15.5
2017-10-05T13:00:14.602Z,15.5
2017-10-05T13:00:44.992Z,15.5
2017-10-05T13:01:15.268Z,15.5
2017-10-05T13:01:45.783Z,15.5
2017-10-05T13:02:16.059Z,15.5
2017-10-05T13:03:12.621Z,15.6
2017-10-05T13:04:11.471Z,15.6
2017-10-05T13:05:10.932Z,15.6
2017-10-05T13:06:09.894Z,15.7
2017-10-05T13:08:08.604Z,15.6
2017-10-05T13:09:07.934Z,15.6
2017-10-05T13:10:07.010Z,15.7
2017-10-05T13:12:05.485Z,15.6
2017-10-05T13:16:02.464Z,15.6
2017-10-05T13:17:01.787Z,15.7
2017-10-05T13:18:00.859Z,15.6
2017-10-05T13:19:00.062Z,15.7
2017-10-05T13:19:59.640Z,15.5
2017-10-05T13:20:58.715Z,15.6
2017-10-05T13:21:57.914Z,15.6
2017-10-05T13:22:57.235Z,15.6
2017-10-05T13:23:56.572Z,15.6
2017-10-05T13:25:54.910Z,15.7
2017-10-05T13:26:54.238Z,15.6
2017-10-05T13:27:53.688Z,15.5
2017-10-05T13:28:52.791Z,15.4
2017-10-05T13:29:51.992Z,15.3
2017-10-05T13:30:51.074Z,15.3
2017-10-05T13:31:50.655Z,15.3
2017-10-05T13:32:49.496Z,15.3
2017-10-05T13:33:48.572Z,15.3
2017-10-05T13:34:48.284Z,15.3
2017-10-05T13:35:47.231Z,15.3
2017-10-05T13:36:46.693Z,15.3
2017-10-05T13:37:46.270Z,15.3
2017-10-05T13:39:44.217Z,15.4
2017-10-05T13:40:43.545Z,15.4
2017-10-05T13:41:42.635Z,15.4
2017-10-05T13:42:42.222Z,15.4
2017-10-05T13:43:12.622Z,15.4
2017-10-05T13:44:40.886Z,15.4
2017-10-05T13:45:39.584Z,15.4
2017-10-05T13:46:39.163Z,15.4
2017-10-05T13:47:38.627Z,15.4
2017-10-05T13:48:37.449Z,15.5
2017-10-05T13:49:36.779Z,15.4
2017-10-05T13:50:36.108Z,15.3
2017-10-05T13:51:35.686Z,15.2
2017-10-05T13:52:34.517Z,15.1
2017-10-05T13:53:33.979Z,15
2017-10-05T13:54:33.185Z,14.9
2017-10-05T13:55:32.386Z,14.7
2017-10-05T13:56:31.718Z,14.5
2017-10-05T13:57:31.045Z,14.5
2017-10-05T13:58:30.245Z,14.4